Time;durP1;ratioP1;P1;durP2;ratioP2;P2;SDS_P1;SDS_P2;PMS_P1;PMS_P2;Temp;Humidity;BMP_temperature;BMP_pressure;BME280_temperature;BME280_humidity;BME280_pressure;Samples;Min_cycle;Max_cycle;Signal;HPM_P1;HPM_P2
2022/11/26 05:06:03;;;;;;;6.78;4.55;;;6.20;99.90;;;;;;4914869;29;20236;-65
2022/11/26 05:08:29;;;;;;;5.15;4.70;;;6.10;99.90;;;;;;4919396;29;20180;-65
2022/11/26 05:10:55;;;;;;;10.03;6.77;;;6.10;99.90;;;;;;4921331;29;20194;-67
2022/11/26 05:13:21;;;;;;;7.40;5.07;;;6.10;99.90;;;;;;4920508;29;20198;-68
2022/11/26 05:15:47;;;;;;;7.22;4.78;;;6.10;99.90;;;;;;4921050;29;20185;-64
2022/11/26 05:18:12;;;;;;;6.70;5.10;;;6.10;99.90;;;;;;4920894;29;20174;-67
2022/11/26 05:20:38;;;;;;;5.00;4.50;;;6.00;99.90;;;;;;4920774;29;20201;-66
2022/11/26 05:23:04;;;;;;;5.30;4.63;;;6.00;99.90;;;;;;4920777;29;20184;-66
2022/11/26 05:25:29;;;;;;;12.37;5.63;;;5.90;99.90;;;;;;4920797;29;20213;-66
2022/11/26 05:27:55;;;;;;;6.13;5.53;;;6.00;99.90;;;;;;4920796;29;20178;-66
2022/11/26 05:30:20;;;;;;;5.87;4.03;;;6.00;99.90;;;;;;4920807;29;20531;-66
2022/11/26 05:32:46;;;;;;;9.03;6.20;;;6.00;99.90;;;;;;4920451;29;20229;-66
2022/11/26 05:35:12;;;;;;;6.30;5.70;;;6.10;99.90;;;;;;4919524;29;20700;-65
2022/11/26 05:37:37;;;;;;;6.07;4.80;;;6.10;99.90;;;;;;4920571;29;20177;-66
2022/11/26 05:40:04;;;;;;;6.33;5.27;;;6.10;99.90;;;;;;4920592;29;20501;-65
2022/11/26 05:42:30;;;;;;;4.70;4.30;;;6.10;99.90;;;;;;4920217;29;20170;-66
2022/11/26 05:44:55;;;;;;;5.80;4.90;;;6.20;99.90;;;;;;4920532;29;20284;-66
2022/11/26 05:47:21;;;;;;;8.13;4.60;;;6.20;99.90;;;;;;4920274;29;20192;-66
2022/11/26 05:49:46;;;;;;;5.00;4.53;;;6.30;99.90;;;;;;4920789;29;20593;-66
2022/11/26 05:52:12;;;;;;;6.57;5.00;;;6.40;99.90;;;;;;4920417;29;20261;-65
2022/11/26 05:54:38;;;;;;;5.97;5.10;;;6.40;99.90;;;;;;4919870;29;20225;-65
2022/11/26 05:57:03;;;;;;;5.73;5.27;;;6.40;99.90;;;;;;4920000;29;20174;-66
2022/11/26 05:59:29;;;;;;;5.70;5.20;;;6.40;99.90;;;;;;4920014;29;20178;-66
2022/11/26 06:01:55;;;;;;;4.70;3.93;;;6.40;99.90;;;;;;4920009;29;20182;-65
2022/11/26 06:04:20;;;;;;;10.50;4.90;;;6.40;99.90;;;;;;4919389;29;20666;-66
2022/11/26 06:06:46;;;;;;;5.37;4.37;;;6.40;99.90;;;;;;4919851;29;20533;-67
2022/11/26 06:09:12;;;;;;;5.03;4.60;;;6.40;99.90;;;;;;4919873;29;20184;-66
2022/11/26 06:11:38;;;;;;;4.50;4.05;;;6.40;99.90;;;;;;4919802;29;20261;-66
2022/11/26 06:14:04;;;;;;;9.07;4.97;;;6.40;99.90;;;;;;4919312;29;20294;-67
2022/11/26 06:16:29;;;;;;;5.20;4.80;;;6.40;99.90;;;;;;4919865;29;20170;-66
2022/11/26 06:18:55;;;;;;;4.23;3.90;;;6.30;99.90;;;;;;4919274;29;20261;-67
2022/11/26 06:21:21;;;;;;;4.97;4.40;;;6.30;99.90;;;;;;4919764;29;20225;-67
2022/11/26 06:23:46;;;;;;;5.53;5.00;;;6.20;99.90;;;;;;4919601;29;20204;-66
2022/11/26 06:26:12;;;;;;;3.40;3.07;;;6.20;99.90;;;;;;4919778;29;20181;-67
2022/11/26 06:28:38;;;;;;;5.50;5.03;;;6.10;99.90;;;;;;4919747;29;20172;-66
2022/11/26 06:31:05;;;;;;;4.78;4.05;;;6.10;99.90;;;;;;4919664;29;20193;-67
2022/11/26 06:33:30;;;;;;;8.88;4.53;;;6.10;99.90;;;;;;4919309;29;20206;-65
2022/11/26 06:36:00;;;;;;;4.23;3.97;;;6.10;99.90;;;;;;4919624;29;20656;-66
2022/11/26 06:38:26;;;;;;;3.90;3.60;;;6.00;99.90;;;;;;4919642;29;20201;-66
2022/11/26 06:41:04;;;;;;;4.20;4.00;;;6.00;99.90;;;;;;4919603;29;20574;-66
2022/11/26 06:43:30;;;;;;;4.47;4.07;;;6.00;99.90;;;;;;4918975;29;20890;-66
2022/11/26 06:46:01;;;;;;;7.38;4.88;;;5.90;99.90;;;;;;4919391;29;20656;-67
2022/11/26 06:48:26;;;;;;;6.35;3.53;;;5.90;99.90;;;;;;4919223;29;20179;-66
2022/11/26 06:50:52;;;;;;;3.40;3.10;;;5.90;99.90;;;;;;4919128;29;20176;-67
2022/11/26 06:53:18;;;;;;;5.47;3.90;;;5.90;99.90;;;;;;4918743;29;20211;-67
2022/11/26 06:55:44;;;;;;;4.10;3.70;;;5.90;99.90;;;;;;4919341;29;20233;-66
2022/11/26 06:58:09;;;;;;;5.70;4.70;;;5.90;99.90;;;;;;4919169;29;20185;-66
2022/11/26 07:00:35;;;;;;;5.30;4.70;;;5.90;99.90;;;;;;4919233;29;20249;-67
2022/11/26 07:03:01;;;;;;;6.53;4.40;;;5.90;99.90;;;;;;4918884;29;20180;-67
2022/11/26 07:05:26;;;;;;;5.37;4.77;;;5.90;99.90;;;;;;4918928;29;20454;-66
2022/11/26 07:07:52;;;;;;;4.77;4.37;;;5.90;99.90;;;;;;4919000;29;20256;-67
2022/11/26 07:10:19;;;;;;;4.07;3.77;;;5.90;99.90;;;;;;4919125;29;20187;-68
2022/11/26 07:12:44;;;;;;;4.97;3.83;;;6.00;99.90;;;;;;4918352;29;20305;-66
2022/11/26 07:15:11;;;;;;;5.47;5.07;;;6.00;99.90;;;;;;4918660;29;20299;-66
2022/11/26 07:17:36;;;;;;;4.32;3.92;;;6.10;99.90;;;;;;4918884;29;20253;-66
2022/11/26 07:20:02;;;;;;;7.33;6.13;;;6.10;99.90;;;;;;4918767;29;20610;-66
2022/11/26 07:22:28;;;;;;;9.88;6.60;;;6.20;99.90;;;;;;4918592;29;20511;-66
2022/11/26 07:24:53;;;;;;;5.53;5.13;;;6.20;99.90;;;;;;4918326;29;20210;-66
2022/11/26 07:27:19;;;;;;;5.27;4.50;;;6.30;99.90;;;;;;4918518;29;20327;-66
2022/11/26 07:29:45;;;;;;;6.63;5.00;;;6.30;99.90;;;;;;4918213;29;20218;-66
2022/11/26 07:32:10;;;;;;;10.57;6.53;;;6.40;99.90;;;;;;4917864;29;20253;-67
2022/11/26 07:34:36;;;;;;;10.00;7.57;;;6.50;99.90;;;;;;4917959;29;20419;-67
2022/11/26 07:37:01;;;;;;;6.50;5.90;;;6.50;99.90;;;;;;4918323;29;20185;-66
2022/11/26 07:39:27;;;;;;;8.50;6.53;;;6.50;99.90;;;;;;4918563;29;20184;-66
2022/11/26 07:41:52;;;;;;;8.70;8.00;;;6.60;99.90;;;;;;4918202;29;20256;-65
2022/11/26 07:44:18;;;;;;;8.40;7.20;;;6.60;99.90;;;;;;4917744;29;20550;-66
2022/11/26 07:46:44;;;;;;;9.87;6.20;;;6.60;99.90;;;;;;4918110;29;20269;-66
2022/11/26 07:49:09;;;;;;;7.87;6.40;;;6.60;99.90;;;;;;4918336;29;20174;-66
2022/11/26 07:51:35;;;;;;;7.83;5.97;;;6.70;99.90;;;;;;4918449;29;20181;-67
2022/11/26 07:54:04;;;;;;;9.20;6.80;;;6.70;99.90;;;;;;4917623;29;20202;-64
2022/11/26 07:56:30;;;;;;;6.82;5.60;;;6.70;99.90;;;;;;4918069;29;20185;-66
2022/11/26 07:58:56;;;;;;;7.57;5.93;;;6.80;99.90;;;;;;4917955;29;20634;-66
2022/11/26 08:01:25;;;;;;;6.87;5.60;;;6.80;99.90;;;;;;4916729;29;20174;-67
2022/11/26 08:03:51;;;;;;;10.40;6.15;;;6.90;99.90;;;;;;4917545;29;20220;-67
2022/11/26 08:06:20;;;;;;;7.80;5.80;;;6.90;99.90;;;;;;4918064;29;20543;-67
2022/11/26 08:08:46;;;;;;;6.07;5.15;;;7.00;99.90;;;;;;4917910;29;20661;-66
2022/11/26 08:11:18;;;;;;;6.07;5.00;;;7.00;99.90;;;;;;4917823;29;20552;-66
2022/11/26 08:13:45;;;;;;;12.00;5.93;;;7.00;99.90;;;;;;4916083;29;20547;-67
2022/11/26 08:16:11;;;;;;;5.50;4.95;;;7.10;99.90;;;;;;4917661;29;20182;-66
2022/11/26 08:18:37;;;;;;;10.27;5.80;;;7.10;99.90;;;;;;4917596;29;20526;-67
2022/11/26 08:21:03;;;;;;;6.40;5.17;;;7.10;99.90;;;;;;4917743;29;20173;-67
2022/11/26 08:23:29;;;;;;;6.63;5.45;;;7.20;99.90;;;;;;4917184;29;20177;-66
2022/11/26 08:25:55;;;;;;;9.57;6.38;;;7.10;99.90;;;;;;4917510;29;20502;-65
2022/11/26 08:28:21;;;;;;;5.50;5.10;;;7.10;99.90;;;;;;4917687;29;20180;-67
2022/11/26 08:30:46;;;;;;;5.43;4.70;;;7.20;99.90;;;;;;4917506;29;20181;-66
2022/11/26 08:33:13;;;;;;;6.53;5.10;;;7.20;99.90;;;;;;4917227;29;20543;-64
2022/11/26 08:35:39;;;;;;;7.68;5.75;;;7.20;99.90;;;;;;4917468;29;20201;-66
2022/11/26 08:38:05;;;;;;;8.53;5.53;;;7.20;99.90;;;;;;4917470;29;20178;-66
2022/11/26 08:40:31;;;;;;;11.75;10.55;;;7.30;99.90;;;;;;4917167;29;20230;-64
2022/11/26 08:42:57;;;;;;;30.92;16.77;;;7.30;99.90;;;;;;4916661;29;20270;-65
2022/11/26 08:45:22;;;;;;;15.00;8.27;;;7.40;99.90;;;;;;4917190;29;20285;-64
2022/11/26 08:47:48;;;;;;;6.70;5.97;;;7.40;99.90;;;;;;4917359;29;20196;-65
2022/11/26 08:50:14;;;;;;;15.13;5.73;;;7.50;99.90;;;;;;4917335;29;20174;-65
2022/11/26 08:52:41;;;;;;;6.10;5.32;;;7.50;99.90;;;;;;4916924;29;20549;-65
2022/11/26 08:55:06;;;;;;;9.15;6.05;;;7.60;99.90;;;;;;4916579;29;20209;-65
2022/11/26 08:57:32;;;;;;;6.07;5.17;;;7.60;99.90;;;;;;4916887;29;20178;-65
2022/11/26 08:59:58;;;;;;;8.30;6.30;;;7.70;99.90;;;;;;4917391;29;20410;-65
2022/11/26 09:02:24;;;;;;;7.28;6.05;;;7.70;99.90;;;;;;4917247;29;20174;-65
2022/11/26 09:04:49;;;;;;;6.40;5.50;;;7.70;99.90;;;;;;4916187;29;20336;-65
2022/11/26 09:07:15;;;;;;;9.17;6.70;;;7.80;99.90;;;;;;4916971;29;20261;-67
2022/11/26 09:09:41;;;;;;;6.60;5.90;;;7.90;99.90;;;;;;4917108;29;20538;-64
2022/11/26 09:12:06;;;;;;;7.47;5.63;;;8.00;99.90;;;;;;4917112;29;20188;-65
2022/11/26 09:14:37;;;;;;;8.40;6.30;;;8.00;99.90;;;;;;4916365;29;20703;-65
2022/11/26 09:17:03;;;;;;;9.63;7.28;;;8.20;99.90;;;;;;4916925;29;20181;-65
2022/11/26 09:19:29;;;;;;;13.38;9.05;;;8.70;99.90;;;;;;4916553;29;20214;-65
2022/11/26 09:21:55;;;;;;;14.70;10.67;;;9.20;99.90;;;;;;4916602;29;20216;-65
2022/11/26 09:24:21;;;;;;;9.17;8.30;;;9.90;99.90;;;;;;4916084;29;20203;-65
2022/11/26 09:26:47;;;;;;;6.93;5.57;;;10.80;99.90;;;;;;4916795;29;20627;-66
2022/11/26 09:29:16;;;;;;;6.93;4.80;;;11.70;99.90;;;;;;4917048;29;20414;-66
2022/11/26 09:31:46;;;;;;;6.00;5.40;;;12.40;99.90;;;;;;4917118;29;20467;-66
2022/11/26 09:34:12;;;;;;;5.63;4.90;;;13.00;99.90;;;;;;4915998;29;20818;-66
2022/11/26 09:36:38;;;;;;;5.30;4.90;;;13.60;99.90;;;;;;4916470;29;20409;-65
2022/11/26 09:39:04;;;;;;;6.33;5.23;;;14.20;99.90;;;;;;4916825;29;20415;-65
2022/11/26 09:41:51;;;;;;;11.40;5.83;;;14.70;99.90;;;;;;4916742;29;20242;-66
2022/11/26 09:44:33;;;;;;;7.97;4.93;;;15.20;99.90;;;;;;4916121;29;20201;-65
2022/11/26 09:47:22;;;;;;;10.03;5.20;;;15.60;99.90;;;;;;4916612;29;20414;-66
2022/11/26 09:50:14;;;;;;;4.50;4.10;;;15.80;99.90;;;;;;4916920;29;20422;-66
2022/11/26 09:52:55;;;;;;;11.70;4.30;;;16.10;99.90;;;;;;4916187;29;20450;-66
2022/11/26 09:55:21;;;;;;;7.17;4.20;;;16.50;99.90;;;;;;4918224;29;20492;-65
2022/11/26 09:58:07;;;;;;;4.87;3.87;;;16.70;99.90;;;;;;4919904;29;20871;-66
2022/11/26 10:00:42;;;;;;;3.97;3.67;;;16.70;99.90;;;;;;4920066;29;20588;-66
2022/11/26 10:03:15;;;;;;;4.67;3.77;;;16.80;99.90;;;;;;4919323;29;20569;-66
2022/11/26 10:06:04;;;;;;;4.20;3.80;;;16.50;99.90;;;;;;4919611;29;20442;-66
2022/11/26 10:09:07;;;;;;;5.90;3.83;;;16.00;99.90;;;;;;4919979;29;20450;-65
2022/11/26 10:11:49;;;;;;;4.37;3.57;;;15.50;99.90;;;;;;4919729;29;20470;-65
2022/11/26 10:14:50;;;;;;;3.70;3.00;;;15.00;99.90;;;;;;4919222;29;20547;-65
2022/11/26 10:17:25;;;;;;;11.67;3.87;;;14.40;99.90;;;;;;4897427;29;20424;-66
2022/11/26 10:20:28;;;;;;;5.27;3.67;;;13.50;99.90;;;;;;4919604;29;20407;-65
2022/11/26 10:23:01;;;;;;;9.53;3.73;;;13.10;99.90;;;;;;4919116;29;20505;-65
2022/11/26 10:25:32;;;;;;;7.80;3.77;;;12.60;99.90;;;;;;4919601;29;20497;-65
2022/11/26 10:27:59;;;;;;;6.20;3.80;;;12.30;99.90;;;;;;4919441;29;20910;-65
2022/11/26 10:30:27;;;;;;;3.70;2.93;;;12.00;99.90;;;;;;4919665;29;20437;-63
2022/11/26 10:32:55;;;;;;;4.57;3.53;;;11.70;99.90;;;;;;4918914;29;20456;-64
2022/11/26 10:35:23;;;;;;;4.60;3.20;;;11.40;99.90;;;;;;4918937;29;20472;-65
2022/11/26 10:37:49;;;;;;;10.00;5.07;;;11.20;99.90;;;;;;4919226;29;20433;-65
2022/11/26 10:40:18;;;;;;;6.87;3.67;;;11.10;99.90;;;;;;4919188;29;20504;-65
2022/11/26 10:43:02;;;;;;;4.47;3.40;;;11.00;99.90;;;;;;4918935;29;20414;-67
2022/11/26 10:45:41;;;;;;;6.53;4.93;;;11.00;99.90;;;;;;4919179;29;20548;-65
2022/11/26 10:48:26;;;;;;;4.60;3.00;;;11.00;99.90;;;;;;4919318;29;20424;-64
2022/11/26 10:51:24;;;;;;;6.20;2.87;;;11.00;99.90;;;;;;4919320;29;20419;-65
2022/11/26 10:54:04;;;;;;;7.43;2.67;;;10.80;99.90;;;;;;4918297;29;20556;-65
2022/11/26 10:56:40;;;;;;;3.07;2.70;;;10.80;99.90;;;;;;4917822;29;20425;-64
2022/11/26 10:59:18;;;;;;;3.80;2.20;;;10.80;99.90;;;;;;4919321;29;20491;-67
2022/11/26 11:01:44;;;;;;;4.93;3.53;;;10.70;99.90;;;;;;4919268;29;20436;-64
2022/11/26 11:04:29;;;;;;;3.47;2.97;;;10.70;99.90;;;;;;4918389;29;20578;-65
2022/11/26 11:06:55;;;;;;;3.47;3.23;;;10.70;99.90;;;;;;4919184;29;20191;-66
2022/11/26 11:09:36;;;;;;;2.23;2.10;;;10.70;99.90;;;;;;4918978;29;20453;-65
2022/11/26 11:12:19;;;;;;;5.03;4.17;;;10.80;99.90;;;;;;4918991;29;20414;-65
2022/11/26 11:14:45;;;;;;;4.20;3.00;;;10.80;99.90;;;;;;4917967;29;20549;-65
2022/11/26 11:17:39;;;;;;;2.57;2.37;;;10.80;99.90;;;;;;4919226;29;20891;-65
2022/11/26 11:20:14;;;;;;;6.07;2.10;;;10.90;99.90;;;;;;4917346;29;20425;-65
2022/11/26 11:22:43;;;;;;;3.43;3.13;;;11.10;99.90;;;;;;4918176;29;20426;-65
2022/11/26 11:25:39;;;;;;;3.60;3.30;;;11.30;99.90;;;;;;4918562;29;20964;-64
2022/11/26 11:28:15;;;;;;;4.00;3.70;;;11.50;99.90;;;;;;4931855;29;20444;-66
2022/11/26 11:30:43;;;;;;;6.33;3.30;;;11.60;99.90;;;;;;4918394;29;20848;-65
2022/11/26 11:33:22;;;;;;;6.73;3.57;;;11.70;99.90;;;;;;4918066;29;20427;-65
2022/11/26 11:36:22;;;;;;;5.07;3.53;;;11.70;99.90;;;;;;4919035;29;20899;-65
2022/11/26 11:38:49;;;;;;;5.80;4.17;;;11.60;99.90;;;;;;4918912;29;20425;-65
2022/11/26 11:41:44;;;;;;;11.40;3.50;;;11.60;99.90;;;;;;4918435;29;20768;-64
2022/11/26 11:44:22;;;;;;;5.30;3.60;;;11.50;99.90;;;;;;4918433;29;20433;-65
2022/11/26 11:47:19;;;;;;;4.30;3.83;;;11.50;99.90;;;;;;4918356;29;20466;-65
2022/11/26 11:50:28;;;;;;;5.03;3.40;;;11.50;99.90;;;;;;4914425;29;20436;-65
2022/11/26 11:53:27;;;;;;;3.80;3.50;;;11.40;99.90;;;;;;4912078;29;20399;-66
2022/11/26 11:56:04;;;;;;;3.13;2.77;;;11.40;99.90;;;;;;4918133;29;20432;-65
2022/11/26 11:58:54;;;;;;;6.30;3.73;;;11.40;99.90;;;;;;4917741;29;20402;-65
2022/11/26 12:01:46;;;;;;;4.53;3.60;;;11.40;99.90;;;;;;4918095;29;20410;-66
2022/11/26 12:04:39;;;;;;;3.40;3.10;;;11.30;99.90;;;;;;4917360;29;20424;-65
2022/11/26 12:07:07;;;;;;;3.30;3.03;;;11.20;99.90;;;;;;4918056;29;20571;-64
2022/11/26 12:09:43;;;;;;;4.13;3.25;;;11.00;99.90;;;;;;4917987;29;20412;-65
2022/11/26 12:12:32;;;;;;;4.60;3.63;;;10.90;99.90;;;;;;4916435;29;20187;-65
2022/11/26 12:15:05;;;;;;;4.13;3.17;;;10.90;99.90;;;;;;4917643;29;20811;-65
2022/11/26 12:17:53;;;;;;;2.95;2.58;;;10.80;99.90;;;;;;4917252;29;20414;-65
2022/11/26 12:20:33;;;;;;;3.58;3.00;;;10.70;99.90;;;;;;4917655;29;20188;-64
2022/11/26 12:23:36;;;;;;;7.95;3.13;;;10.60;99.90;;;;;;4917204;29;20174;-65
2022/11/26 12:26:17;;;;;;;3.95;2.80;;;10.50;99.90;;;;;;4917531;29;20190;-64
2022/11/26 12:28:57;;;;;;;4.38;3.17;;;10.50;99.90;;;;;;4917448;29;20188;-65
2022/11/26 12:31:31;;;;;;;4.20;3.38;;;10.60;99.90;;;;;;4917722;29;20177;-65
2022/11/26 12:34:01;;;;;;;8.83;3.20;;;10.60;99.90;;;;;;4917014;29;20220;-64
2022/11/26 12:37:01;;;;;;;3.80;2.97;;;10.60;99.90;;;;;;4917412;29;20781;-65
2022/11/26 12:39:36;;;;;;;2.80;2.60;;;10.60;99.90;;;;;;4896091;29;20780;-65
2022/11/26 12:42:04;;;;;;;4.13;3.08;;;10.60;99.90;;;;;;4916916;29;20481;-65
2022/11/26 12:44:40;;;;;;;4.60;2.78;;;10.60;99.90;;;;;;4916966;29;20198;-64
2022/11/26 12:47:22;;;;;;;3.47;2.33;;;10.60;99.90;;;;;;4917033;29;20227;-66
2022/11/26 12:50:14;;;;;;;3.50;3.20;;;10.60;99.90;;;;;;4917261;29;20429;-64
2022/11/26 12:52:58;;;;;;;3.22;2.92;;;10.60;99.90;;;;;;4917253;29;20186;-64
2022/11/26 12:55:34;;;;;;;1.75;1.65;;;10.60;99.90;;;;;;4916961;29;20262;-65
2022/11/26 12:58:21;;;;;;;1.83;1.73;;;10.70;99.90;;;;;;4916875;29;20544;-65
2022/11/26 13:00:48;;;;;;;2.22;2.05;;;10.70;99.90;;;;;;4916618;29;20179;-64
2022/11/26 13:03:17;;;;;;;4.10;2.60;;;10.70;99.90;;;;;;4916670;29;20188;-65
2022/11/26 13:05:51;;;;;;;1.83;1.73;;;10.70;99.90;;;;;;4916743;29;20211;-65
2022/11/26 13:08:46;;;;;;;6.43;2.80;;;10.60;99.90;;;;;;4916917;29;20173;-64
2022/11/26 13:11:27;;;;;;;2.10;1.85;;;10.50;99.90;;;;;;4916812;29;20682;-65
2022/11/26 13:14:20;;;;;;;2.70;2.50;;;10.40;99.90;;;;;;4916510;29;20240;-63
2022/11/26 13:17:08;;;;;;;2.35;2.10;;;10.30;99.90;;;;;;4916935;29;20666;-65
2022/11/26 13:19:54;;;;;;;6.68;2.40;;;10.30;99.90;;;;;;4916719;29;20269;-65
2022/11/26 13:22:28;;;;;;;2.20;2.00;;;10.20;99.90;;;;;;4916949;29;20198;-64
2022/11/26 13:25:14;;;;;;;14.15;3.63;;;10.30;99.90;;;;;;4916145;29;20283;-65
2022/11/26 13:28:01;;;;;;;4.65;2.47;;;10.20;99.90;;;;;;4916517;29;20189;-66
2022/11/26 13:30:49;;;;;;;2.17;2.08;;;10.30;99.90;;;;;;4920244;29;20230;-66
2022/11/26 13:33:23;;;;;;;3.33;2.22;;;10.30;99.90;;;;;;4920171;29;20221;-65
2022/11/26 13:36:10;;;;;;;3.40;3.08;;;10.30;99.90;;;;;;4920613;29;20201;-65
2022/11/26 13:38:45;;;;;;;5.45;3.40;;;10.20;99.90;;;;;;4920301;29;20594;-64
2022/11/26 13:41:17;;;;;;;2.55;2.35;;;10.10;99.90;;;;;;4920353;29;20165;-65
2022/11/26 13:44:21;;;;;;;4.72;2.15;;;10.10;99.90;;;;;;4919863;29;20616;-64
2022/11/26 13:46:58;;;;;;;2.38;2.20;;;10.10;99.90;;;;;;4880461;29;20189;-65
2022/11/26 13:49:42;;;;;;;3.42;2.30;;;10.00;99.90;;;;;;4914748;29;20301;-64
2022/11/26 13:52:19;;;;;;;4.43;2.67;;;10.00;99.90;;;;;;4920006;29;20170;-65
2022/11/26 13:55:02;;;;;;;5.05;2.83;;;10.00;99.90;;;;;;4919649;29;20220;-65
2022/11/26 13:57:38;;;;;;;2.20;2.00;;;10.00;99.90;;;;;;4920246;29;20533;-63
2022/11/26 14:00:05;;;;;;;2.35;2.15;;;10.00;99.90;;;;;;4919944;29;20520;-66
2022/11/26 14:02:36;;;;;;;3.85;2.95;;;10.00;99.90;;;;;;4914324;29;20179;-65
2022/11/26 14:05:28;;;;;;;2.80;2.13;;;9.90;99.90;;;;;;4900882;29;20552;-64
2022/11/26 14:08:32;;;;;;;3.05;2.60;;;9.90;99.90;;;;;;4902827;29;20605;-64
2022/11/26 14:10:57;;;;;;;2.22;2.03;;;9.90;99.90;;;;;;4901221;29;20544;-65
2022/11/26 14:13:23;;;;;;;3.27;2.93;;;9.90;99.90;;;;;;4914212;29;20193;-66
2022/11/26 14:16:09;;;;;;;5.90;3.00;;;9.80;99.90;;;;;;4919839;29;20166;-65
2022/11/26 14:18:50;;;;;;;4.10;2.40;;;9.80;99.90;;;;;;4919778;29;20590;-65
2022/11/26 14:21:18;;;;;;;5.75;2.85;;;9.70;99.90;;;;;;4919636;29;20656;-64
2022/11/26 14:23:46;;;;;;;3.00;2.83;;;9.70;99.90;;;;;;4919163;29;20565;-66
2022/11/26 14:26:29;;;;;;;3.25;3.05;;;9.60;99.90;;;;;;4919511;29;20186;-64
2022/11/26 14:29:10;;;;;;;2.90;2.70;;;9.60;99.90;;;;;;4905496;29;20181;-64
2022/11/26 14:31:53;;;;;;;3.05;2.75;;;9.50;99.90;;;;;;4919445;29;20653;-64
2022/11/26 14:34:49;;;;;;;2.90;2.70;;;9.50;99.90;;;;;;4918677;29;20220;-65
2022/11/26 14:37:20;;;;;;;2.65;2.33;;;9.40;99.90;;;;;;4918842;29;20185;-67
2022/11/26 14:39:55;;;;;;;4.82;4.38;;;9.40;99.90;;;;;;4919220;29;20192;-65
2022/11/26 14:42:21;;;;;;;3.10;2.30;;;9.30;99.90;;;;;;4919075;29;20770;-64
2022/11/26 14:45:03;;;;;;;3.50;2.50;;;9.30;99.90;;;;;;4918940;29;20296;-65
2022/11/26 14:47:30;;;;;;;3.88;3.45;;;9.30;99.90;;;;;;4919090;29;20192;-64
2022/11/26 14:50:03;;;;;;;2.95;2.72;;;9.30;99.90;;;;;;4919200;29;20178;-65
2022/11/26 14:52:34;;;;;;;4.03;3.40;;;9.20;99.90;;;;;;4918863;29;20321;-64
2022/11/26 14:55:05;;;;;;;3.40;2.95;;;9.20;99.90;;;;;;4918515;29;20288;-64
2022/11/26 14:57:47;;;;;;;3.60;3.28;;;9.10;99.90;;;;;;4918923;29;20527;-66
2022/11/26 15:00:12;;;;;;;2.85;2.65;;;9.10;99.90;;;;;;4918943;29;20175;-64
2022/11/26 15:02:40;;;;;;;5.17;3.37;;;9.00;99.90;;;;;;4918688;29;20189;-66
2022/11/26 15:05:27;;;;;;;3.30;3.00;;;9.00;99.90;;;;;;4918701;29;20340;-64
2022/11/26 15:08:05;;;;;;;4.07;3.70;;;8.90;99.90;;;;;;4918952;29;20189;-65
2022/11/26 15:10:57;;;;;;;2.95;2.75;;;8.80;99.90;;;;;;4918617;29;20271;-65
2022/11/26 15:13:34;;;;;;;3.03;2.83;;;8.80;99.90;;;;;;4912991;29;20567;-64
2022/11/26 15:16:01;;;;;;;5.75;3.15;;;8.70;99.90;;;;;;4918979;29;20214;-66
2022/11/26 15:18:33;;;;;;;4.18;3.78;;;8.60;99.90;;;;;;4918580;29;20668;-65
2022/11/26 15:21:01;;;;;;;3.80;3.42;;;8.50;99.90;;;;;;4918838;29;20185;-65
2022/11/26 15:23:35;;;;;;;7.32;3.33;;;8.40;99.90;;;;;;4917981;29;20178;-65
2022/11/26 15:26:02;;;;;;;4.00;3.70;;;8.40;99.90;;;;;;4918604;29;20166;-65
2022/11/26 15:28:28;;;;;;;11.63;3.80;;;8.30;99.90;;;;;;4918598;29;20171;-64
2022/11/26 15:31:01;;;;;;;3.57;3.27;;;8.10;99.90;;;;;;4918983;29;20173;-64
2022/11/26 15:33:29;;;;;;;5.72;3.72;;;8.10;99.90;;;;;;4918065;29;20410;-66
2022/11/26 15:35:58;;;;;;;6.03;3.55;;;8.00;99.90;;;;;;4918246;29;20174;-66
2022/11/26 15:38:28;;;;;;;3.88;3.55;;;7.90;99.90;;;;;;4918001;29;20237;-65
2022/11/26 15:40:58;;;;;;;4.30;3.90;;;7.90;99.90;;;;;;4917695;29;20193;-64
2022/11/26 15:43:52;;;;;;;5.35;3.88;;;7.80;99.90;;;;;;4917833;29;20313;-65
2022/11/26 15:46:24;;;;;;;3.45;3.25;;;7.80;99.90;;;;;;4918218;29;20204;-65
2022/11/26 15:48:54;;;;;;;5.70;4.13;;;7.70;99.90;;;;;;4917744;29;20191;-65
2022/11/26 15:51:32;;;;;;;7.90;5.03;;;7.70;99.90;;;;;;4917019;29;20166;-66
2022/11/26 15:53:58;;;;;;;5.40;4.07;;;7.70;99.90;;;;;;4917667;29;20547;-65
2022/11/26 15:56:29;;;;;;;5.93;4.90;;;7.60;99.90;;;;;;4917848;29;20192;-64
2022/11/26 15:58:58;;;;;;;4.93;4.45;;;7.60;99.90;;;;;;4917725;29;20425;-65
2022/11/26 16:01:26;;;;;;;4.40;4.00;;;7.50;99.90;;;;;;4917884;29;20268;-65
2022/11/26 16:03:56;;;;;;;5.15;4.60;;;7.50;99.90;;;;;;4916876;29;20197;-65
2022/11/26 16:06:27;;;;;;;7.80;5.82;;;7.50;99.90;;;;;;4916132;29;20252;-65
2022/11/26 16:09:24;;;;;;;5.32;4.00;;;7.40;99.90;;;;;;4917692;29;20181;-65
2022/11/26 16:12:00;;;;;;;4.70;4.30;;;7.40;99.90;;;;;;4914375;29;20182;-65
2022/11/26 16:14:33;;;;;;;7.25;4.72;;;7.30;99.90;;;;;;4917077;29;20215;-66
2022/11/26 16:17:03;;;;;;;4.10;3.47;;;7.20;99.90;;;;;;4917678;29;20221;-65
2022/11/26 16:19:30;;;;;;;7.70;5.53;;;7.20;99.90;;;;;;4917747;29;20185;-65
2022/11/26 16:21:56;;;;;;;6.55;5.13;;;7.10;99.90;;;;;;4916403;29;20172;-65
2022/11/26 16:24:27;;;;;;;4.70;4.20;;;7.00;99.90;;;;;;4917179;29;20204;-66
2022/11/26 16:27:00;;;;;;;6.32;5.35;;;7.00;99.90;;;;;;4917578;29;20509;-64
2022/11/26 16:29:27;;;;;;;6.07;5.47;;;6.90;99.90;;;;;;4917860;29;20200;-66
2022/11/26 16:31:54;;;;;;;10.50;6.80;;;6.90;99.90;;;;;;4917134;29;20192;-64
2022/11/26 16:34:19;;;;;;;7.97;7.25;;;6.80;99.90;;;;;;4915847;29;20210;-67
2022/11/26 16:36:45;;;;;;;8.17;6.20;;;6.80;99.90;;;;;;4915984;29;20181;-66
2022/11/26 16:39:16;;;;;;;6.97;5.23;;;6.80;99.90;;;;;;4917164;29;20250;-65
2022/11/26 16:41:42;;;;;;;11.40;6.93;;;6.80;99.90;;;;;;4917217;29;20507;-66
2022/11/26 16:44:07;;;;;;;12.27;7.33;;;6.80;99.90;;;;;;4916637;29;20227;-65
2022/11/26 16:46:37;;;;;;;11.20;8.67;;;6.80;99.90;;;;;;4916975;29;20428;-66
2022/11/26 16:49:03;;;;;;;8.02;7.20;;;6.70;99.90;;;;;;4917167;29;20247;-65
2022/11/26 16:51:29;;;;;;;8.88;6.55;;;6.60;99.90;;;;;;4916969;29;20307;-66
2022/11/26 16:53:55;;;;;;;10.57;8.50;;;6.60;99.90;;;;;;4916206;29;20682;-66
2022/11/26 16:56:36;;;;;;;10.67;6.87;;;6.50;99.90;;;;;;4917061;29;20421;-66
2022/11/26 16:59:14;;;;;;;11.02;7.55;;;6.50;99.90;;;;;;4915743;29;20270;-65
2022/11/26 17:01:40;;;;;;;8.05;7.25;;;6.40;99.90;;;;;;4917001;29;20223;-65
2022/11/26 17:04:05;;;;;;;8.07;7.20;;;6.30;99.90;;;;;;4915996;29;20236;-65
2022/11/26 17:06:32;;;;;;;11.23;7.47;;;6.20;99.90;;;;;;4917050;29;20672;-65
2022/11/26 17:08:59;;;;;;;9.57;7.22;;;6.20;99.90;;;;;;4917216;29;20176;-65
2022/11/26 17:11:25;;;;;;;9.20;7.43;;;6.10;99.90;;;;;;4917004;29;20192;-63
2022/11/26 17:13:51;;;;;;;11.85;6.22;;;6.10;99.90;;;;;;4916594;29;20609;-66
2022/11/26 17:16:20;;;;;;;9.63;6.43;;;6.00;99.90;;;;;;4917180;29;20235;-66
2022/11/26 17:18:46;;;;;;;10.45;6.63;;;5.90;99.90;;;;;;4916543;29;20196;-65
2022/11/26 17:21:12;;;;;;;7.50;6.60;;;5.80;99.90;;;;;;4917141;29;20180;-66
2022/11/26 17:23:37;;;;;;;9.40;6.83;;;5.70;99.90;;;;;;4916472;29;20178;-65
2022/11/26 17:26:18;;;;;;;6.30;5.70;;;5.60;99.90;;;;;;4916906;29;20660;-65
2022/11/26 17:28:44;;;;;;;8.73;5.55;;;5.60;99.90;;;;;;4915216;29;20266;-65
2022/11/26 17:31:10;;;;;;;8.03;6.07;;;5.50;99.90;;;;;;4916629;29;20262;-67
2022/11/26 17:33:35;;;;;;;6.80;6.20;;;5.50;99.90;;;;;;4916076;29;20457;-68
2022/11/26 17:36:02;;;;;;;7.97;7.27;;;5.50;99.90;;;;;;4916493;29;20179;-66
2022/11/26 17:38:28;;;;;;;7.47;6.22;;;5.40;99.90;;;;;;4916646;29;20197;-66
2022/11/26 17:40:54;;;;;;;6.20;5.63;;;5.40;99.90;;;;;;4916687;29;20178;-66
2022/11/26 17:43:19;;;;;;;5.90;5.37;;;5.40;99.90;;;;;;4916128;29;20196;-65
2022/11/26 17:45:45;;;;;;;7.03;6.30;;;5.40;99.90;;;;;;4916858;29;20180;-67
2022/11/26 17:48:12;;;;;;;6.40;5.07;;;5.30;99.90;;;;;;4916726;29;20184;-67
2022/11/26 17:50:39;;;;;;;5.65;5.03;;;5.30;99.90;;;;;;4916717;29;20190;-67
2022/11/26 17:53:04;;;;;;;5.32;4.82;;;5.30;99.90;;;;;;4916057;29;20200;-67
2022/11/26 17:55:30;;;;;;;6.20;5.03;;;5.20;99.90;;;;;;4916568;29;20674;-65
2022/11/26 17:57:57;;;;;;;7.10;6.40;;;5.20;99.90;;;;;;4916759;29;20172;-66
2022/11/26 18:00:28;;;;;;;5.18;4.75;;;5.20;99.90;;;;;;4915350;29;20663;-66
2022/11/26 18:02:54;;;;;;;6.28;5.68;;;5.20;99.90;;;;;;4916346;29;20195;-65
2022/11/26 18:05:19;;;;;;;10.63;7.40;;;5.10;99.90;;;;;;4916204;29;20224;-66
2022/11/26 18:07:45;;;;;;;8.93;7.57;;;5.10;99.90;;;;;;4916277;29;20174;-66
2022/11/26 18:10:16;;;;;;;7.73;6.80;;;5.10;99.90;;;;;;4915317;29;20186;-64
2022/11/26 18:12:43;;;;;;;9.52;8.52;;;5.10;99.90;;;;;;4916345;29;20190;-63
2022/11/26 18:15:20;;;;;;;12.00;8.27;;;5.10;99.90;;;;;;4932440;29;20228;-66
2022/11/26 18:17:49;;;;;;;12.65;9.48;;;5.10;99.90;;;;;;4919545;29;20177;-66
2022/11/26 18:20:17;;;;;;;10.30;8.73;;;5.00;99.90;;;;;;4919714;29;20175;-65
2022/11/26 18:22:43;;;;;;;7.35;6.60;;;5.00;99.90;;;;;;4919194;29;20190;-66
2022/11/26 18:25:09;;;;;;;10.63;8.98;;;5.00;99.90;;;;;;4919854;29;20198;-65